Time;durP1;ratioP1;P1;durP2;ratioP2;P2;SDS_P1;SDS_P2;PMS_P1;PMS_P2;Temp;Humidity;BMP_temperature;BMP_pressure;BME280_temperature;BME280_humidity;BME280_pressure;Samples;Min_cycle;Max_cycle;Signal;HPM_P1;HPM_P2
2020/12/14 00:01:08;;;;;;;56.73;26.37;;;;;;;4.55;79.05;98935.59;125538;1095;65268;-87
2020/12/14 00:03:35;;;;;;;59.80;30.25;;;;;;;4.56;78.44;98937.30;125552;1095;65127;-87
2020/12/14 00:06:01;;;;;;;68.60;31.57;;;;;;;4.53;78.97;98942.75;125299;1095;65517;-88
2020/12/14 00:08:28;;;;;;;57.45;28.80;;;;;;;4.51;78.78;98943.74;125301;1095;65140;-86
2020/12/14 00:10:54;;;;;;;56.40;28.00;;;;;;;4.49;78.83;98948.26;125256;1097;65137;-87
2020/12/14 00:13:20;;;;;;;57.87;27.70;;;;;;;4.47;78.45;98947.48;125637;1097;65153;-87
2020/12/14 00:15:47;;;;;;;52.30;24.47;;;;;;;4.48;79.17;98943.91;125593;1095;65135;-86
2020/12/14 00:18:13;;;;;;;51.23;25.23;;;;;;;4.52;79.25;98945.48;125319;1096;65253;-87
2020/12/14 00:20:40;;;;;;;52.27;25.97;;;;;;;4.58;78.62;98958.38;125314;1095;65133;-87
2020/12/14 00:23:06;;;;;;;53.50;27.00;;;;;;;4.63;78.82;98963.44;125267;1096;65294;-91
2020/12/14 00:25:33;;;;;;;54.23;27.50;;;;;;;4.64;78.75;98960.72;125698;1095;65126;-88
2020/12/14 00:27:59;;;;;;;51.97;27.10;;;;;;;4.66;78.80;98965.95;125342;1095;65146;-86
2020/12/14 00:30:25;;;;;;;59.27;26.97;;;;;;;4.69;78.72;98960.50;125264;1095;65274;-89
2020/12/14 00:32:52;;;;;;;55.37;25.50;;;;;;;4.72;79.11;98968.30;125306;1096;65169;-89
2020/12/14 00:35:19;;;;;;;57.88;27.75;;;;;;;4.70;78.27;98967.49;125721;1096;65146;-87
2020/12/14 00:37:45;;;;;;;58.20;27.50;;;;;;;4.70;78.58;98970.14;125315;1096;65255;-86
2020/12/14 00:40:11;;;;;;;61.17;28.87;;;;;;;4.67;78.84;98973.81;125540;1095;65119;-87
2020/12/14 00:42:44;;;;;;;67.27;29.63;;;;;;;4.64;78.76;98979.23;125286;1097;65290;-86
2020/12/14 00:45:11;;;;;;;51.93;24.33;;;;;;;4.63;78.89;98977.52;125370;1097;65227;-85
2020/12/14 00:47:39;;;;;;;54.53;26.30;;;;;;;4.59;78.67;98979.48;125431;1096;65139;-88
2020/12/14 00:50:06;;;;;;;52.53;24.73;;;;;;;4.65;78.91;98974.83;125313;1096;65136;-88
2020/12/14 00:52:33;;;;;;;58.60;25.13;;;;;;;4.65;79.15;98972.19;125353;1096;65249;-87
2020/12/14 00:54:59;;;;;;;53.03;25.30;;;;;;;4.69;79.04;98973.72;125527;1095;65294;-88
2020/12/14 00:57:26;;;;;;;53.63;26.87;;;;;;;4.72;78.67;98973.59;125724;1096;65127;-88
2020/12/14 00:59:52;;;;;;;51.97;25.67;;;;;;;4.72;78.89;98984.17;125290;1095;65320;-88
2020/12/14 01:02:22;;;;;;;56.53;26.20;;;;;;;4.72;78.74;98984.17;125717;1097;65137;-86
2020/12/14 01:04:50;;;;;;;58.45;27.40;;;;;;;4.71;78.52;98979.78;125596;1096;65150;-87
2020/12/14 01:07:17;;;;;;;58.13;27.60;;;;;;;4.69;79.19;98985.16;125552;1095;65357;-87
2020/12/14 01:09:44;;;;;;;54.40;25.57;;;;;;;4.67;78.16;98983.53;125277;1095;65127;-85
2020/12/14 01:12:10;;;;;;;52.20;25.40;;;;;;;4.64;79.08;98981.88;125708;1096;65251;-87
2020/12/14 01:14:37;;;;;;;46.87;23.27;;;;;;;4.61;78.95;98982.04;125361;1095;65200;-88
2020/12/14 01:17:03;;;;;;;47.53;24.10;;;;;;;4.60;79.10;98981.19;125287;1097;65198;-88
2020/12/14 01:19:30;;;;;;;49.33;23.70;;;;;;;4.59;78.70;98984.77;125877;1095;65162;-89
2020/12/14 01:21:56;;;;;;;44.67;22.07;;;;;;;4.59;78.49;98981.27;125294;1095;65530;-86
2020/12/14 01:24:23;;;;;;;45.23;21.67;;;;;;;4.60;78.27;98981.19;125306;1096;65137;-86
2020/12/14 01:26:49;;;;;;;45.77;22.23;;;;;;;4.61;78.81;98982.89;125340;1096;65309;-86
2020/12/14 01:29:15;;;;;;;49.97;23.37;;;;;;;4.64;78.85;98984.52;125915;1095;65139;-90
2020/12/14 01:31:42;;;;;;;47.83;23.37;;;;;;;4.68;78.64;98987.89;125546;1095;65297;-87
2020/12/14 01:34:08;;;;;;;51.37;23.73;;;;;;;4.70;78.79;98993.95;125275;1095;65140;-86
2020/12/14 01:36:34;;;;;;;47.33;23.70;;;;;;;4.72;79.31;98989.46;125258;1096;65255;-87
2020/12/14 01:39:01;;;;;;;52.67;24.47;;;;;;;4.73;79.33;98989.38;125988;1095;65140;-85
2020/12/14 01:41:27;;;;;;;50.55;25.05;;;;;;;4.76;79.32;98985.70;125370;1096;65156;-88
2020/12/14 01:43:53;;;;;;;49.30;26.40;;;;;;;4.78;79.10;98990.02;125507;1095;65147;-91
2020/12/14 01:46:28;;;;;;;50.33;25.00;;;;;;;4.79;78.53;98988.22;125543;1095;65139;-86
2020/12/14 01:49:00;;;;;;;53.47;26.93;;;;;;;4.79;78.96;98996.16;125540;1095;65357;-86
2020/12/14 01:51:29;;;;;;;51.03;25.47;;;;;;;4.76;79.10;98991.00;125737;1097;65140;-88
2020/12/14 01:53:58;;;;;;;46.83;23.40;;;;;;;4.74;79.01;98988.44;125626;1095;65254;-86
2020/12/14 01:56:26;;;;;;;41.10;23.03;;;;;;;4.73;78.46;98986.73;125530;1095;65269;-89
2020/12/14 01:58:52;;;;;;;45.77;23.00;;;;;;;4.73;78.69;98970.86;125431;1097;65123;-87
2020/12/14 02:01:19;;;;;;;41.90;22.23;;;;;;;4.71;78.85;98974.49;125538;1097;65223;-86
2020/12/14 02:03:45;;;;;;;44.60;24.13;;;;;;;4.66;78.57;98976.53;125295;1095;65247;-91
2020/12/14 02:06:11;;;;;;;48.10;25.13;;;;;;;4.53;79.20;98985.06;125311;1096;65174;-87
2020/12/14 02:08:38;;;;;;;51.30;25.83;;;;;;;4.39;78.60;98979.59;125284;1096;65198;-86
2020/12/14 02:11:04;;;;;;;50.00;25.70;;;;;;;4.28;79.03;98982.75;125703;1097;65178;-91
2020/12/14 02:13:31;;;;;;;50.57;25.53;;;;;;;4.18;78.99;98975.31;125292;1096;65139;-86
2020/12/14 02:15:57;;;;;;;49.03;25.83;;;;;;;4.10;78.90;98974.83;125536;1095;65130;-89
2020/12/14 02:18:24;;;;;;;52.20;27.55;;;;;;;4.02;79.04;98978.69;125331;1095;65202;-87
2020/12/14 02:20:50;;;;;;;54.70;26.50;;;;;;;3.91;79.00;98974.83;125726;1095;65274;-87
2020/12/14 02:23:17;;;;;;;57.07;26.17;;;;;;;3.77;79.21;98972.83;125323;1095;65272;-88
2020/12/14 02:25:43;;;;;;;52.67;25.57;;;;;;;3.60;78.61;98973.58;125353;1096;65237;-86
2020/12/14 02:28:10;;;;;;;68.60;26.00;;;;;;;3.41;78.90;98973.55;125334;1097;65715;-87
2020/12/14 02:30:36;;;;;;;55.13;25.60;;;;;;;3.24;79.17;98968.14;125885;1096;65245;-88
2020/12/14 02:33:03;;;;;;;51.02;22.65;;;;;;;3.10;78.99;98979.30;125262;1095;65351;-86
2020/12/14 02:35:29;;;;;;;44.50;21.30;;;;;;;3.01;79.13;98978.85;125426;1096;65130;-86
2020/12/14 02:37:56;;;;;;;45.57;23.07;;;;;;;2.94;79.45;98979.11;125423;1097;65080;-88
2020/12/14 02:40:22;;;;;;;48.37;25.90;;;;;;;2.89;79.24;98978.44;125440;1097;65137;-85
2020/12/14 02:42:49;;;;;;;45.00;23.87;;;;;;;2.86;79.59;98972.42;125668;1097;65162;-87
2020/12/14 02:45:15;;;;;;;52.00;27.73;;;;;;;2.81;79.23;98984.97;125333;1096;65211;-89
2020/12/14 02:47:42;;;;;;;50.45;28.35;;;;;;;2.79;79.31;98992.92;125531;1096;65154;-86
2020/12/14 02:50:09;;;;;;;59.70;30.43;;;;;;;2.76;79.51;98993.06;125439;1097;65101;-90
2020/12/14 02:52:35;;;;;;;71.55;33.80;;;;;;;2.70;79.59;98995.95;125292;1097;65246;-87
2020/12/14 02:55:02;;;;;;;59.60;29.63;;;;;;;2.68;80.08;98997.80;125802;1095;65125;-88
2020/12/14 02:57:28;;;;;;;58.92;28.80;;;;;;;2.60;79.66;98991.96;125320;1097;65331;-88
2020/12/14 02:59:55;;;;;;;57.10;26.65;;;;;;;2.54;79.55;98992.21;125566;1095;65190;-86
2020/12/14 03:02:21;;;;;;;53.87;26.17;;;;;;;2.44;79.43;98997.87;125658;1096;65307;-86
2020/12/14 03:04:48;;;;;;;54.70;26.67;;;;;;;2.35;79.55;98992.95;125342;1096;65233;-86
2020/12/14 03:07:14;;;;;;;55.60;24.20;;;;;;;2.28;79.49;98987.98;125281;1096;65217;-90
2020/12/14 03:09:40;;;;;;;53.52;23.52;;;;;;;2.21;79.42;98995.28;125326;1096;65152;-87
2020/12/14 03:12:07;;;;;;;54.33;25.73;;;;;;;2.19;79.50;98994.48;125977;1095;65147;-89
2020/12/14 03:14:33;;;;;;;52.27;26.30;;;;;;;2.20;80.03;98998.83;125296;1096;65249;-87
2020/12/14 03:17:01;;;;;;;56.03;25.70;;;;;;;2.26;79.90;99009.13;125608;1095;65146;-85
2020/12/14 03:19:27;;;;;;;61.47;25.83;;;;;;;2.34;80.06;99000.92;125527;1095;65130;-91
2020/12/14 03:21:54;;;;;;;72.10;29.37;;;;;;;2.40;79.88;99001.53;125302;1096;65510;-88
2020/12/14 03:24:20;;;;;;;73.40;27.90;;;;;;;2.43;80.05;98995.30;125374;1095;65089;-88
2020/12/14 03:26:48;;;;;;;75.78;30.17;;;;;;;2.41;79.77;98997.97;125288;1096;65339;-86
2020/12/14 03:29:15;;;;;;;76.87;29.40;;;;;;;2.36;79.79;98994.69;125686;1095;65275;-86
2020/12/14 03:31:41;;;;;;;72.17;28.47;;;;;;;2.29;80.02;99002.87;125442;1097;65188;-86
2020/12/14 03:34:08;;;;;;;61.77;28.37;;;;;;;2.25;79.84;99006.56;125198;1096;65338;-87
2020/12/14 03:36:35;;;;;;;56.20;27.67;;;;;;;2.19;80.16;98997.13;125217;1096;65208;-87
2020/12/14 03:39:01;;;;;;;60.77;25.77;;;;;;;2.12;79.79;98998.28;125567;1095;65226;-87
2020/12/14 03:41:27;;;;;;;58.55;25.80;;;;;;;2.04;79.64;99005.63;125260;1096;65089;-88
2020/12/14 03:43:54;;;;;;;58.17;26.60;;;;;;;1.99;79.74;99004.94;125357;1096;65207;-87
2020/12/14 03:46:25;;;;;;;61.47;26.30;;;;;;;1.94;80.35;99002.47;125257;1096;65223;-87
2020/12/14 03:48:53;;;;;;;56.67;26.23;;;;;;;1.93;80.07;99005.17;125278;1095;65137;-88
2020/12/14 03:51:21;;;;;;;63.00;26.13;;;;;;;1.90;80.08;99000.86;125602;1096;65102;-87
2020/12/14 03:53:48;;;;;;;51.77;24.60;;;;;;;1.89;79.96;99007.05;125696;1095;65175;-89
2020/12/14 03:56:19;;;;;;;49.73;24.50;;;;;;;1.78;79.47;99002.20;125556;1096;65536;-88
2020/12/14 03:58:46;;;;;;;62.20;28.67;;;;;;;1.69;79.79;99007.80;125597;1096;65317;-86
2020/12/14 04:01:17;;;;;;;72.77;28.27;;;;;;;1.66;80.15;99004.44;125417;1096;65226;-90
2020/12/14 04:03:44;;;;;;;73.60;32.30;;;;;;;1.64;80.20;99004.47;125455;1096;65175;-90
2020/12/14 04:06:22;;;;;;;78.30;32.17;;;;;;;1.65;80.25;99011.44;125840;1095;65130;-86
2020/12/14 04:08:50;;;;;;;78.75;31.75;;;;;;;1.63;80.39;99010.66;125292;1095;65159;-88
2020/12/14 04:11:17;;;;;;;96.40;38.23;;;;;;;1.63;80.28;99010.66;125298;1096;65627;-89
2020/12/14 04:13:44;;;;;;;98.15;44.95;;;;;;;1.65;80.48;99008.81;125937;1096;65150;-87
2020/12/14 04:16:11;;;;;;;89.65;38.60;;;;;;;1.66;80.39;99017.59;125256;1095;65250;-87
2020/12/14 04:18:38;;;;;;;79.03;33.90;;;;;;;1.66;80.45;99017.59;125759;1095;65079;-86
2020/12/14 04:21:05;;;;;;;69.90;31.05;;;;;;;1.66;80.32;99015.82;125786;1096;65147;-89
2020/12/14 04:23:32;;;;;;;63.60;30.97;;;;;;;1.65;79.98;99016.70;125679;1090;65150;-88
2020/12/14 04:25:58;;;;;;;97.47;31.43;;;;;;;1.66;80.17;99010.55;125388;1095;65255;-89
2020/12/14 04:28:25;;;;;;;87.05;29.85;;;;;;;1.68;80.43;99013.13;125374;1096;65243;-89
2020/12/14 04:30:51;;;;;;;60.57;29.40;;;;;;;1.69;80.70;99007.80;125316;1095;65153;-89
2020/12/14 04:33:18;;;;;;;72.70;34.50;;;;;;;1.68;80.33;99021.88;125598;1096;65176;-90
2020/12/14 04:35:44;;;;;;;70.37;33.08;;;;;;;1.61;80.34;99015.13;125322;1097;65179;-88
2020/12/14 04:38:11;;;;;;;76.47;35.07;;;;;;;1.58;80.41;99031.02;125337;1096;65166;-88
2020/12/14 04:40:37;;;;;;;72.33;33.40;;;;;;;1.56;80.29;99028.44;125553;1095;65130;-88
2020/12/14 04:43:08;;;;;;;65.87;31.07;;;;;;;1.55;80.34;99031.14;125474;1095;65150;-87
2020/12/14 04:45:36;;;;;;;56.97;28.03;;;;;;;1.55;80.55;99034.63;125281;1096;65229;-87
2020/12/14 04:48:03;;;;;;;52.50;25.93;;;;;;;1.59;80.49;99038.88;125399;1095;65300;-89
2020/12/14 04:50:30;;;;;;;60.60;28.33;;;;;;;1.61;80.44;99036.18;125310;1096;65233;-88
2020/12/14 04:53:00;;;;;;;55.50;26.10;;;;;;;1.62;80.50;99040.53;125575;1095;65191;-89
2020/12/14 04:55:27;;;;;;;64.43;28.40;;;;;;;1.63;80.58;99045.73;125599;1095;65512;-88
2020/12/14 04:57:54;;;;;;;66.25;29.05;;;;;;;1.62;80.52;99041.38;125334;1095;65130;-90
2020/12/14 05:00:21;;;;;;;65.87;29.80;;;;;;;1.60;80.36;99048.48;125585;1096;65133;-90
2020/12/14 05:02:55;;;;;;;72.25;30.65;;;;;;;1.48;80.10;99050.70;125294;1095;65191;-88
2020/12/14 05:05:24;;;;;;;73.00;34.30;;;;;;;1.37;79.77;99055.47;125250;1095;65163;-89
2020/12/14 05:07:50;;;;;;;82.57;36.90;;;;;;;1.29;80.11;99051.34;125866;1096;65134;-86
2020/12/14 05:10:22;;;;;;;82.23;39.63;;;;;;;1.27;80.04;99050.54;125281;1096;65226;-89
2020/12/14 05:12:48;;;;;;;81.17;33.57;;;;;;;1.14;79.62;99053.61;125367;1097;65236;-87
2020/12/14 05:15:15;;;;;;;79.60;35.10;;;;;;;0.96;80.19;99052.48;125304;1096;65235;-91
2020/12/14 05:17:41;;;;;;;69.95;32.28;;;;;;;0.89;80.07;99054.46;125297;1096;65258;-86
2020/12/14 05:20:16;;;;;;;72.73;32.57;;;;;;;0.79;80.33;99064.41;125353;1096;65146;-92
2020/12/14 05:23:03;;;;;;;65.23;30.70;;;;;;;0.79;80.58;99071.44;125289;1095;65258;-90
2020/12/14 05:25:30;;;;;;;72.10;32.93;;;;;;;0.80;80.39;99074.00;125308;1095;65240;-89
2020/12/14 05:28:01;;;;;;;76.27;32.47;;;;;;;0.85;80.27;99071.23;125295;1095;65139;-91
2020/12/14 05:30:43;;;;;;;65.40;32.83;;;;;;;0.87;80.62;99073.81;125533;1095;65153;-91
2020/12/14 05:33:11;;;;;;;72.43;32.87;;;;;;;0.84;80.60;99074.78;125330;1095;65233;-86
2020/12/14 05:35:41;;;;;;;65.67;32.87;;;;;;;0.77;80.57;99078.52;125331;1097;65562;-90
2020/12/14 05:38:25;;;;;;;73.47;33.00;;;;;;;0.70;80.36;99071.70;125331;1096;65185;-89
2020/12/14 05:40:54;;;;;;;78.57;33.30;;;;;;;0.64;80.07;99075.42;125520;1095;65155;-88
2020/12/14 05:43:29;;;;;;;96.43;34.73;;;;;;;0.58;80.39;99070.36;125322;1097;65332;-88
2020/12/14 05:45:55;;;;;;;;;;;;;;;0.55;80.40;99065.18;125333;1097;65172;-89
2020/12/14 05:48:33;;;;;;;81.63;35.47;;;;;;;0.49;80.62;99063.59;125525;1095;65153;-88
2020/12/14 05:51:01;;;;;;;75.37;35.47;;;;;;;0.43;79.95;99065.56;125307;1097;65115;-88
2020/12/14 05:53:32;;;;;;;81.90;35.90;;;;;;;0.35;80.38;99070.20;125287;1095;65141;-89
2020/12/14 05:56:00;;;;;;;94.07;36.83;;;;;;;0.36;80.50;99071.91;125329;1097;65242;-88
2020/12/14 05:58:29;;;;;;;88.90;37.90;;;;;;;0.44;80.66;99067.27;125319;1097;65176;-91
2020/12/14 06:00:56;;;;;;;92.70;40.27;;;;;;;0.44;80.60;99069.90;125536;1095;65155;-87
2020/12/14 06:03:24;;;;;;;83.67;37.63;;;;;;;0.37;80.67;99073.63;125297;1097;65252;-90
2020/12/14 06:06:02;;;;;;;80.53;37.23;;;;;;;0.24;80.49;99074.00;125326;1097;65124;-90
2020/12/14 06:08:44;;;;;;;98.27;42.00;;;;;;;0.15;79.92;99076.05;125342;1097;65156;-89
2020/12/14 06:11:11;;;;;;;84.17;35.47;;;;;;;0.12;80.44;99084.86;125273;1097;65223;-89
2020/12/14 06:14:02;;;;;;;102.73;40.13;;;;;;;0.07;80.41;99084.16;125307;1095;65114;-89
2020/12/14 06:16:31;;;;;;;104.33;45.73;;;;;;;0.07;79.90;99086.79;125315;1096;65335;-88
2020/12/14 06:18:57;;;;;;;96.53;43.50;;;;;;;0.09;81.05;99084.97;125677;1097;65195;-87
2020/12/14 06:21:39;;;;;;;94.50;41.10;;;;;;;0.11;80.95;99077.89;125349;1096;65156;-88
2020/12/14 06:24:13;;;;;;;109.83;46.87;;;;;;;0.11;80.20;99077.04;125259;1097;65157;-88
2020/12/14 06:26:44;;;;;;;104.50;44.15;;;;;;;0.13;80.28;99086.61;125293;1097;65242;-87
2020/12/14 06:29:28;;;;;;;107.10;48.57;;;;;;;0.16;80.74;99083.88;125530;1095;65258;-87
2020/12/14 06:31:54;;;;;;;133.27;54.97;;;;;;;0.25;80.47;99088.88;125293;1097;65269;-88
2020/12/14 06:34:33;;;;;;;119.30;53.73;;;;;;;0.28;81.12;99092.31;125347;1096;65154;-87
2020/12/14 06:37:02;;;;;;;123.55;55.15;;;;;;;0.28;80.67;99087.05;125628;1095;65150;-87
2020/12/14 06:39:31;;;;;;;130.87;54.30;;;;;;;0.30;80.42;99090.48;125353;1095;65136;-87
2020/12/14 06:42:10;;;;;;;115.17;52.33;;;;;;;0.32;80.77;99088.66;125473;1096;65377;-87
2020/12/14 06:44:43;;;;;;;131.05;57.70;;;;;;;0.34;80.78;99090.36;125461;1095;65155;-89
2020/12/14 06:47:13;;;;;;;118.50;58.35;;;;;;;0.41;81.17;99089.27;125542;1095;65156;-87
2020/12/14 06:49:40;;;;;;;129.27;64.20;;;;;;;0.45;81.24;99092.67;125526;1095;65157;-89
2020/12/14 06:52:07;;;;;;;138.13;66.30;;;;;;;0.52;80.76;99096.83;126079;1095;65269;-89
2020/12/14 06:54:42;;;;;;;145.77;66.73;;;;;;;0.57;81.12;99096.66;125146;1096;65348;-89
2020/12/14 06:57:10;;;;;;;130.15;61.25;;;;;;;0.57;80.65;99092.26;125357;1097;65275;-85
2020/12/14 06:59:37;;;;;;;135.43;60.90;;;;;;;0.55;80.72;99094.09;125384;1095;65156;-84
2020/12/14 07:02:07;;;;;;;146.67;64.97;;;;;;;0.52;80.42;99094.20;126298;1095;65239;-87
2020/12/14 07:04:37;;;;;;;149.27;58.43;;;;;;;0.56;80.39;99093.17;125605;1096;65236;-84
2020/12/14 07:07:06;;;;;;;142.47;60.10;;;;;;;0.64;81.00;99092.96;125392;1096;65229;-84
2020/12/14 07:09:38;;;;;;;132.90;53.10;;;;;;;0.67;81.07;99091.08;125594;1095;66412;-85
2020/12/14 07:12:08;;;;;;;136.50;50.57;;;;;;;0.71;80.92;99083.97;125460;1095;65158;-86
2020/12/14 07:14:43;;;;;;;132.33;56.07;;;;;;;0.72;80.15;99097.05;125665;1095;65137;-86
2020/12/14 07:17:24;;;;;;;95.03;43.23;;;;;;;0.74;80.42;99089.97;125536;1095;65146;-84
2020/12/14 07:19:56;;;;;;;106.50;42.10;;;;;;;0.77;80.97;99095.14;125302;1096;65334;-86
2020/12/14 07:22:34;;;;;;;99.13;40.17;;;;;;;0.83;80.75;99093.20;125590;1095;65133;-85
2020/12/14 07:25:04;;;;;;;110.83;44.03;;;;;;;0.85;80.17;99088.78;125607;1096;65165;-85
2020/12/14 07:27:32;;;;;;;108.63;43.13;;;;;;;0.91;80.49;99093.84;125349;1096;65210;-84
2020/12/14 07:30:26;;;;;;;88.10;35.55;;;;;;;1.04;80.63;99100.42;125750;1095;65214;-85
2020/12/14 07:32:52;;;;;;;102.13;40.47;;;;;;;1.26;80.75;99108.44;125440;1096;65274;-86
2020/12/14 07:35:20;;;;;;;89.43;37.87;;;;;;;1.44;81.10;99113.09;125295;1096;65285;-83
2020/12/14 07:37:47;;;;;;;98.73;40.43;;;;;;;1.61;80.62;99117.78;125503;1095;65649;-86
2020/12/14 07:40:14;;;;;;;129.05;52.20;;;;;;;1.74;80.42;99108.53;125266;1096;65242;-85
2020/12/14 07:42:44;;;;;;;127.60;52.05;;;;;;;1.86;80.90;99118.63;125329;1095;65439;-83
2020/12/14 07:45:16;;;;;;;117.57;50.63;;;;;;;1.98;80.82;99116.48;125291;1096;65293;-84
2020/12/14 07:47:44;;;;;;;139.27;60.93;;;;;;;2.08;80.57;99113.44;125310;1096;65214;-84
2020/12/14 07:50:19;;;;;;;122.20;52.67;;;;;;;2.20;80.34;99111.27;125563;1095;65179;-84
2020/12/14 07:52:46;;;;;;;103.95;43.83;;;;;;;2.30;80.10;99110.88;125610;1096;65246;-87
2020/12/14 07:55:14;;;;;;;96.63;40.90;;;;;;;2.41;80.77;99116.58;125603;1095;65204;-83
2020/12/14 07:57:44;;;;;;;80.87;38.30;;;;;;;2.54;80.42;99113.47;125318;1096;65384;-84
2020/12/14 08:00:23;;;;;;;93.53;40.33;;;;;;;2.68;80.15;99113.82;125498;1095;65256;-83
2020/12/14 08:03:00;;;;;;;97.53;37.13;;;;;;;2.82;80.65;99103.58;125470;1095;65127;-84
2020/12/14 08:05:28;;;;;;;89.10;40.05;;;;;;;2.96;80.76;99103.88;125520;1096;65150;-83
2020/12/14 08:08:03;;;;;;;83.30;37.80;;;;;;;3.07;80.84;99107.88;125452;1096;65170;-83
2020/12/14 08:10:32;;;;;;;90.10;38.57;;;;;;;3.18;80.54;99113.55;125485;1095;65149;-83
2020/12/14 08:13:09;;;;;;;86.63;39.77;;;;;;;3.30;80.96;99109.55;125768;1095;65242;-85
2020/12/14 08:15:38;;;;;;;92.40;39.50;;;;;;;3.32;80.57;99113.86;125378;1095;65246;-87
2020/12/14 08:18:06;;;;;;;88.50;40.20;;;;;;;3.32;80.26;99116.50;125542;1095;65610;-85
2020/12/14 08:20:36;;;;;;;84.23;40.07;;;;;;;3.34;80.45;99105.87;125526;1095;65136;-83
2020/12/14 08:23:19;;;;;;;87.23;41.37;;;;;;;3.40;80.06;99101.19;125592;1095;65310;-83
2020/12/14 08:25:49;;;;;;;108.03;45.07;;;;;;;3.47;80.07;99102.64;125609;1095;65230;-82
2020/12/14 08:28:17;;;;;;;106.30;47.35;;;;;;;3.52;80.17;99111.23;125797;1095;65156;-83
2020/12/14 08:30:44;;;;;;;107.37;45.40;;;;;;;3.60;80.18;99100.33;125641;1095;65251;-84
2020/12/14 08:33:14;;;;;;;94.70;43.90;;;;;;;3.74;79.92;99110.30;125301;1097;65335;-85
2020/12/14 08:35:45;;;;;;;89.10;39.40;;;;;;;3.89;80.38;99107.00;125523;1095;65358;-82
2020/12/14 08:38:14;;;;;;;81.87;36.73;;;;;;;4.08;80.45;99109.69;125319;1097;65133;-84
2020/12/14 08:41:01;;;;;;;94.23;40.33;;;;;;;4.27;80.11;99104.42;125333;1096;65168;-83
2020/12/14 08:43:30;;;;;;;103.87;46.57;;;;;;;4.46;79.88;99100.00;125527;1095;65145;-87
2020/12/14 08:46:02;;;;;;;94.63;41.27;;;;;;;4.52;79.55;99094.44;125377;1097;65137;-85
2020/12/14 08:48:40;;;;;;;86.73;38.20;;;;;;;4.56;80.05;99101.27;125509;1095;65242;-82
2020/12/14 08:51:12;;;;;;;76.17;35.87;;;;;;;4.59;80.12;99105.58;125279;1096;65150;-84
2020/12/14 08:53:44;;;;;;;77.30;34.67;;;;;;;4.60;79.70;99104.64;125245;1096;65192;-83
2020/12/14 08:56:17;;;;;;;75.33;35.47;;;;;;;4.62;79.86;99105.42;125222;1096;65156;-82
2020/12/14 08:58:52;;;;;;;88.00;34.85;;;;;;;4.67;80.44;99102.56;125321;1096;65160;-82
2020/12/14 09:01:21;;;;;;;90.60;40.80;;;;;;;4.74;80.35;99098.70;125327;1095;65133;-83
2020/12/14 09:04:06;;;;;;;95.37;42.97;;;;;;;4.82;79.93;99099.17;125606;1095;65261;-82
2020/12/14 09:06:37;;;;;;;122.95;49.35;;;;;;;4.95;80.06;99092.36;125341;1096;65220;-82
2020/12/14 09:09:12;;;;;;;96.27;40.73;;;;;;;5.03;79.95;99090.22;125721;1095;65203;-82
2020/12/14 09:11:42;;;;;;;;;;;;;;;5.11;80.41;99092.48;125441;1095;65299;-89
2020/12/14 09:14:09;;;;;;;82.87;36.00;;;;;;;5.19;79.82;99084.16;125307;1097;65288;-85
2020/12/14 09:16:37;;;;;;;86.87;36.33;;;;;;;5.27;79.63;99096.07;125293;1095;65317;-86
2020/12/14 09:19:04;;;;;;;95.60;40.75;;;;;;;5.36;79.92;99095.63;125642;1096;65136;-82
2020/12/14 09:21:32;;;;;;;108.50;42.60;;;;;;;5.44;79.73;99089.94;125789;1096;65229;-83
2020/12/14 09:24:15;;;;;;;114.73;47.87;;;;;;;5.53;80.13;99078.86;125529;1095;65127;-83
2020/12/14 09:26:44;;;;;;;108.25;46.05;;;;;;;5.62;79.77;99091.66;125366;1097;65156;-82
2020/12/14 09:29:12;;;;;;;107.40;42.73;;;;;;;5.66;80.09;99084.39;125395;1095;64961;-85
2020/12/14 09:31:40;;;;;;;76.70;32.63;;;;;;;5.70;79.64;99092.11;125511;1096;65162;-83
2020/12/14 09:34:07;;;;;;;51.43;24.87;;;;;;;5.81;80.12;99093.36;125372;1096;65243;-83
2020/12/14 09:36:34;;;;;;;46.13;22.27;;;;;;;5.94;79.69;99082.06;125488;1095;65258;-80
2020/12/14 09:39:01;;;;;;;52.57;24.00;;;;;;;6.10;80.08;99076.78;125300;1095;65182;-80
2020/12/14 09:41:37;;;;;;;53.40;23.37;;;;;;;6.24;79.68;99076.07;125599;1095;65162;-80
2020/12/14 09:44:04;;;;;;;42.97;21.17;;;;;;;6.36;79.34;99074.52;125368;1096;65262;-81
2020/12/14 09:46:31;;;;;;;47.40;23.13;;;;;;;6.46;79.33;99073.09;125638;1095;65124;-81
2020/12/14 09:48:58;;;;;;;46.17;20.87;;;;;;;6.58;79.41;99071.56;125782;1090;65218;-82
2020/12/14 09:51:25;;;;;;;41.77;19.47;;;;;;;6.70;79.48;99066.42;125526;1096;65246;-85
2020/12/14 09:53:53;;;;;;;44.43;19.77;;;;;;;6.83;79.18;99061.28;125791;1095;65172;-82
2020/12/14 09:56:20;;;;;;;39.95;19.25;;;;;;;6.97;79.42;99060.48;125417;1096;65159;-82
2020/12/14 09:58:48;;;;;;;40.40;20.23;;;;;;;7.07;79.24;99058.17;125780;1095;65159;-88
2020/12/14 10:01:15;;;;;;;43.50;20.53;;;;;;;7.17;79.37;99054.88;125813;1095;65143;-86
2020/12/14 10:03:43;;;;;;;40.13;20.23;;;;;;;7.27;79.37;99053.41;125704;1095;65240;-84
2020/12/14 10:06:13;;;;;;;34.30;18.30;;;;;;;7.33;78.87;99052.20;125613;1095;65195;-83
2020/12/14 10:08:44;;;;;;;37.60;19.27;;;;;;;7.36;79.03;99053.80;125602;1095;65130;-83
2020/12/14 10:11:11;;;;;;;37.43;18.67;;;;;;;7.41;78.77;99054.39;125678;1096;65348;-82
2020/12/14 10:13:39;;;;;;;35.30;19.00;;;;;;;7.43;78.73;99052.49;125748;1090;65053;-86
2020/12/14 10:16:07;;;;;;;41.40;19.83;;;;;;;7.45;78.87;99047.97;125388;1095;65323;-85
2020/12/14 10:18:35;;;;;;;35.97;19.43;;;;;;;7.48;78.78;99053.08;125468;1096;65145;-81
2020/12/14 10:21:01;;;;;;;44.27;20.40;;;;;;;7.52;78.97;99051.97;125542;1096;65245;-82
2020/12/14 10:23:31;;;;;;;37.53;19.47;;;;;;;7.57;78.95;99041.89;125252;1096;65179;-84
2020/12/14 10:25:58;;;;;;;41.50;19.95;;;;;;;7.65;79.06;99041.45;125380;1097;65577;-88
2020/12/14 10:28:24;;;;;;;36.10;19.67;;;;;;;7.72;79.03;99034.81;125288;1095;65245;-85
2020/12/14 10:30:51;;;;;;;35.60;19.10;;;;;;;7.76;78.64;99034.55;125359;1096;65277;-81
2020/12/14 10:33:19;;;;;;;33.20;17.80;;;;;;;7.78;78.67;99032.64;125212;1096;65140;-86
2020/12/14 10:35:48;;;;;;;37.17;18.63;;;;;;;7.81;78.38;99023.61;125293;1096;65108;-84
2020/12/14 10:38:16;;;;;;;36.00;18.07;;;;;;;7.83;78.42;99027.90;125195;1096;65242;-87
2020/12/14 10:40:42;;;;;;;38.00;19.50;;;;;;;7.91;78.45;99029.23;125377;1096;65290;-80
2020/12/14 10:43:09;;;;;;;33.50;17.60;;;;;;;8.00;78.37;99032.16;125325;1095;65261;-87
2020/12/14 10:45:36;;;;;;;33.23;18.70;;;;;;;8.06;78.39;99029.12;125248;1097;65153;-84
2020/12/14 10:48:03;;;;;;;38.97;20.83;;;;;;;8.14;78.21;99023.31;125242;1097;65646;-83
2020/12/14 10:50:30;;;;;;;25.60;15.30;;;;;;;8.16;77.90;99025.91;125548;1096;65111;-82
2020/12/14 10:52:57;;;;;;;24.33;14.77;;;;;;;8.17;78.33;99019.63;125392;1096;65150;-83
2020/12/14 10:55:25;;;;;;;28.55;15.45;;;;;;;8.18;78.11;99011.54;125705;1095;65184;-85
2020/12/14 10:57:51;;;;;;;29.00;16.45;;;;;;;8.21;77.94;99014.03;125660;1095;65206;-81
2020/12/14 11:00:22;;;;;;;26.55;14.75;;;;;;;8.17;77.51;99007.17;125724;1095;65191;-82
2020/12/14 11:02:49;;;;;;;23.27;13.23;;;;;;;8.17;77.70;99008.98;125462;1095;65249;-87
2020/12/14 11:05:15;;;;;;;23.10;14.00;;;;;;;8.19;77.54;99007.07;125453;1095;65162;-85
2020/12/14 11:07:42;;;;;;;23.83;14.37;;;;;;;8.21;77.81;99005.19;125286;1096;65242;-82
2020/12/14 11:10:10;;;;;;;22.07;13.17;;;;;;;8.22;77.77;99010.41;125258;1096;65171;-86
2020/12/14 11:12:37;;;;;;;26.00;14.63;;;;;;;8.17;77.75;99011.64;125482;1095;65248;-82
2020/12/14 11:15:07;;;;;;;32.20;14.40;;;;;;;8.11;77.49;99013.73;125248;1096;65156;-85
2020/12/14 11:17:35;;;;;;;28.37;15.57;;;;;;;8.07;77.59;99014.86;125219;1096;65220;-86
2020/12/14 11:20:05;;;;;;;32.43;17.13;;;;;;;8.03;77.81;99004.53;125237;1095;65224;-82
2020/12/14 11:22:32;;;;;;;24.00;14.07;;;;;;;7.97;77.50;99007.58;125315;1096;65277;-84
2020/12/14 11:24:59;;;;;;;53.77;14.90;;;;;;;7.92;77.50;99009.66;125305;1096;65127;-83